sensor_id;sensor_type;location;lat;lon;timestamp;P1;durP1;ratioP1;P2;durP2;ratioP2
47155;SDS011;32908;52.344;16.858;2022-11-20T00:00:51;13.90;;;8.00;;
47155;SDS011;32908;52.344;16.858;2022-11-20T00:03:19;11.90;;;7.80;;
47155;SDS011;32908;52.344;16.858;2022-11-20T00:05:47;13.00;;;7.87;;
47155;SDS011;32908;52.344;16.858;2022-11-20T00:08:15;12.90;;;7.80;;
47155;SDS011;32908;52.344;16.858;2022-11-20T00:10:43;13.17;;;8.37;;
47155;SDS011;32908;52.344;16.858;2022-11-20T00:13:11;13.13;;;8.23;;
47155;SDS011;32908;52.344;16.858;2022-11-20T00:15:39;11.73;;;7.27;;
47155;SDS011;32908;52.344;16.858;2022-11-20T00:18:07;12.30;;;7.53;;
47155;SDS011;32908;52.344;16.858;2022-11-20T00:20:34;11.80;;;7.70;;
47155;SDS011;32908;52.344;16.858;2022-11-20T00:23:02;14.37;;;8.13;;
47155;SDS011;32908;52.344;16.858;2022-11-20T00:25:30;13.20;;;8.10;;
47155;SDS011;32908;52.344;16.858;2022-11-20T00:27:58;11.07;;;7.40;;
47155;SDS011;32908;52.344;16.858;2022-11-20T00:30:26;12.95;;;7.70;;
47155;SDS011;32908;52.344;16.858;2022-11-20T00:32:55;11.87;;;7.63;;
47155;SDS011;32908;52.344;16.858;2022-11-20T00:35:24;10.93;;;6.77;;
47155;SDS011;32908;52.344;16.858;2022-11-20T00:37:51;11.87;;;7.40;;
47155;SDS011;32908;52.344;16.858;2022-11-20T00:40:19;10.03;;;6.83;;
47155;SDS011;32908;52.344;16.858;2022-11-20T00:42:47;13.65;;;7.55;;
47155;SDS011;32908;52.344;16.858;2022-11-20T00:45:15;12.43;;;7.23;;
47155;SDS011;32908;52.344;16.858;2022-11-20T00:47:43;11.30;;;7.60;;
47155;SDS011;32908;52.344;16.858;2022-11-20T00:50:11;10.93;;;7.43;;
47155;SDS011;32908;52.344;16.858;2022-11-20T00:52:39;13.23;;;7.43;;
47155;SDS011;32908;52.344;16.858;2022-11-20T00:55:07;13.37;;;7.60;;
47155;SDS011;32908;52.344;16.858;2022-11-20T00:57:35;11.10;;;7.13;;
47155;SDS011;32908;52.344;16.858;2022-11-20T01:00:05;12.73;;;7.80;;
47155;SDS011;32908;52.344;16.858;2022-11-20T01:02:34;12.30;;;7.57;;
47155;SDS011;32908;52.344;16.858;2022-11-20T01:05:02;14.77;;;7.90;;
47155;SDS011;32908;52.344;16.858;2022-11-20T01:07:32;13.03;;;7.93;;
47155;SDS011;32908;52.344;16.858;2022-11-20T01:10:00;12.33;;;7.90;;
47155;SDS011;32908;52.344;16.858;2022-11-20T01:12:28;18.50;;;8.33;;
47155;SDS011;32908;52.344;16.858;2022-11-20T01:14:55;12.80;;;7.60;;
47155;SDS011;32908;52.344;16.858;2022-11-20T01:17:23;13.80;;;8.40;;
47155;SDS011;32908;52.344;16.858;2022-11-20T01:19:51;11.80;;;7.83;;
47155;SDS011;32908;52.344;16.858;2022-11-20T01:22:19;12.63;;;7.10;;
47155;SDS011;32908;52.344;16.858;2022-11-20T01:24:47;13.23;;;8.00;;
47155;SDS011;32908;52.344;16.858;2022-11-20T01:27:15;12.80;;;8.37;;
47155;SDS011;32908;52.344;16.858;2022-11-20T01:29:42;11.97;;;8.13;;
47155;SDS011;32908;52.344;16.858;2022-11-20T01:32:10;13.67;;;7.73;;
47155;SDS011;32908;52.344;16.858;2022-11-20T01:34:38;10.75;;;7.20;;
47155;SDS011;32908;52.344;16.858;2022-11-20T01:37:06;12.03;;;7.47;;
47155;SDS011;32908;52.344;16.858;2022-11-20T01:39:34;13.53;;;7.97;;
47155;SDS011;32908;52.344;16.858;2022-11-20T01:42:02;12.40;;;7.40;;
47155;SDS011;32908;52.344;16.858;2022-11-20T01:44:50;15.33;;;8.53;;
47155;SDS011;32908;52.344;16.858;2022-11-20T01:47:25;11.93;;;7.60;;
47155;SDS011;32908;52.344;16.858;2022-11-20T01:49:59;12.80;;;8.03;;
47155;SDS011;32908;52.344;16.858;2022-11-20T01:52:32;12.90;;;8.07;;
47155;SDS011;32908;52.344;16.858;2022-11-20T01:55:04;13.93;;;8.60;;
47155;SDS011;32908;52.344;16.858;2022-11-20T01:57:35;14.00;;;7.43;;
47155;SDS011;32908;52.344;16.858;2022-11-20T02:00:05;12.53;;;8.13;;
47155;SDS011;32908;52.344;16.858;2022-11-20T02:02:35;12.47;;;8.10;;
47155;SDS011;32908;52.344;16.858;2022-11-20T02:05:04;13.33;;;8.20;;
47155;SDS011;32908;52.344;16.858;2022-11-20T02:07:39;13.57;;;8.47;;
47155;SDS011;32908;52.344;16.858;2022-11-20T02:10:08;13.03;;;8.03;;
47155;SDS011;32908;52.344;16.858;2022-11-20T02:12:35;11.50;;;7.80;;
47155;SDS011;32908;52.344;16.858;2022-11-20T02:15:22;15.30;;;8.60;;
47155;SDS011;32908;52.344;16.858;2022-11-20T02:17:49;13.30;;;8.35;;
47155;SDS011;32908;52.344;16.858;2022-11-20T02:20:17;14.33;;;8.07;;
47155;SDS011;32908;52.344;16.858;2022-11-20T02:22:47;11.50;;;7.87;;
47155;SDS011;32908;52.344;16.858;2022-11-20T02:25:17;12.25;;;7.70;;
47155;SDS011;32908;52.344;16.858;2022-11-20T02:27:46;13.97;;;8.37;;
47155;SDS011;32908;52.344;16.858;2022-11-20T02:30:14;11.77;;;7.80;;
47155;SDS011;32908;52.344;16.858;2022-11-20T02:32:43;13.27;;;8.23;;
47155;SDS011;32908;52.344;16.858;2022-11-20T02:38:09;14.25;;;9.30;;
47155;SDS011;32908;52.344;16.858;2022-11-20T02:40:37;13.63;;;8.63;;
47155;SDS011;32908;52.344;16.858;2022-11-20T02:43:05;15.60;;;9.47;;
47155;SDS011;32908;52.344;16.858;2022-11-20T02:45:33;16.15;;;9.60;;
47155;SDS011;32908;52.344;16.858;2022-11-20T02:48:01;12.55;;;8.10;;
47155;SDS011;32908;52.344;16.858;2022-11-20T02:50:29;16.27;;;9.10;;
47155;SDS011;32908;52.344;16.858;2022-11-20T02:52:57;13.57;;;9.17;;
47155;SDS011;32908;52.344;16.858;2022-11-20T02:55:25;13.07;;;8.53;;
47155;SDS011;32908;52.344;16.858;2022-11-20T02:57:53;13.63;;;8.33;;
47155;SDS011;32908;52.344;16.858;2022-11-20T03:00:21;15.77;;;9.17;;
47155;SDS011;32908;52.344;16.858;2022-11-20T03:02:49;16.03;;;8.77;;
47155;SDS011;32908;52.344;16.858;2022-11-20T03:05:16;15.87;;;9.30;;
47155;SDS011;32908;52.344;16.858;2022-11-20T03:07:44;15.23;;;9.53;;
47155;SDS011;32908;52.344;16.858;2022-11-20T03:10:12;13.87;;;9.17;;
47155;SDS011;32908;52.344;16.858;2022-11-20T03:12:40;15.33;;;9.70;;
47155;SDS011;32908;52.344;16.858;2022-11-20T03:15:09;14.93;;;8.63;;
47155;SDS011;32908;52.344;16.858;2022-11-20T03:17:37;14.30;;;8.93;;
47155;SDS011;32908;52.344;16.858;2022-11-20T03:20:06;14.60;;;10.27;;
47155;SDS011;32908;52.344;16.858;2022-11-20T03:22:36;14.50;;;9.45;;
47155;SDS011;32908;52.344;16.858;2022-11-20T03:25:05;14.20;;;8.95;;
47155;SDS011;32908;52.344;16.858;2022-11-20T03:27:34;14.93;;;9.30;;
47155;SDS011;32908;52.344;16.858;2022-11-20T03:30:02;18.20;;;10.15;;
47155;SDS011;32908;52.344;16.858;2022-11-20T03:32:32;14.30;;;9.43;;
47155;SDS011;32908;52.344;16.858;2022-11-20T03:34:59;15.40;;;9.97;;
47155;SDS011;32908;52.344;16.858;2022-11-20T03:37:28;14.00;;;9.27;;
47155;SDS011;32908;52.344;16.858;2022-11-20T03:39:55;14.77;;;9.57;;
47155;SDS011;32908;52.344;16.858;2022-11-20T03:42:23;17.23;;;9.40;;
47155;SDS011;32908;52.344;16.858;2022-11-20T03:45:10;14.30;;;9.00;;
47155;SDS011;32908;52.344;16.858;2022-11-20T03:47:38;14.50;;;9.23;;
47155;SDS011;32908;52.344;16.858;2022-11-20T03:50:07;17.55;;;10.40;;
47155;SDS011;32908;52.344;16.858;2022-11-20T03:52:36;14.97;;;9.80;;
47155;SDS011;32908;52.344;16.858;2022-11-20T03:55:05;16.20;;;9.60;;
47155;SDS011;32908;52.344;16.858;2022-11-20T03:57:34;17.23;;;10.13;;
47155;SDS011;32908;52.344;16.858;2022-11-20T04:00:02;14.30;;;9.20;;
47155;SDS011;32908;52.344;16.858;2022-11-20T04:02:31;15.03;;;9.07;;
47155;SDS011;32908;52.344;16.858;2022-11-20T04:04:59;15.20;;;9.57;;
47155;SDS011;32908;52.344;16.858;2022-11-20T04:07:27;14.47;;;9.17;;
47155;SDS011;32908;52.344;16.858;2022-11-20T04:09:55;15.30;;;9.40;;
47155;SDS011;32908;52.344;16.858;2022-11-20T04:12:22;14.43;;;9.73;;
47155;SDS011;32908;52.344;16.858;2022-11-20T04:14:50;15.97;;;9.47;;
47155;SDS011;32908;52.344;16.858;2022-11-20T04:17:18;16.07;;;10.03;;
47155;SDS011;32908;52.344;16.858;2022-11-20T04:19:47;15.00;;;8.93;;
47155;SDS011;32908;52.344;16.858;2022-11-20T04:22:14;14.30;;;9.40;;
47155;SDS011;32908;52.344;16.858;2022-11-20T04:24:42;15.90;;;9.73;;
47155;SDS011;32908;52.344;16.858;2022-11-20T04:27:10;16.33;;;10.23;;
47155;SDS011;32908;52.344;16.858;2022-11-20T04:29:38;14.60;;;9.50;;
47155;SDS011;32908;52.344;16.858;2022-11-20T04:32:06;15.57;;;9.13;;
47155;SDS011;32908;52.344;16.858;2022-11-20T04:34:34;16.17;;;10.10;;
47155;SDS011;32908;52.344;16.858;2022-11-20T04:37:02;15.27;;;9.67;;
47155;SDS011;32908;52.344;16.858;2022-11-20T04:39:29;14.03;;;9.23;;
47155;SDS011;32908;52.344;16.858;2022-11-20T04:41:57;15.07;;;9.53;;
47155;SDS011;32908;52.344;16.858;2022-11-20T04:44:40;14.33;;;9.30;;
47155;SDS011;32908;52.344;16.858;2022-11-20T04:47:07;14.27;;;8.87;;
47155;SDS011;32908;52.344;16.858;2022-11-20T04:49:36;14.50;;;9.30;;
47155;SDS011;32908;52.344;16.858;2022-11-20T04:52:04;13.67;;;8.20;;
47155;SDS011;32908;52.344;16.858;2022-11-20T04:54:32;14.33;;;9.13;;
47155;SDS011;32908;52.344;16.858;2022-11-20T04:57:00;14.53;;;9.00;;
47155;SDS011;32908;52.344;16.858;2022-11-20T04:59:28;17.90;;;9.10;;
47155;SDS011;32908;52.344;16.858;2022-11-20T05:01:56;15.10;;;9.47;;
47155;SDS011;32908;52.344;16.858;2022-11-20T05:04:24;14.27;;;8.97;;
47155;SDS011;32908;52.344;16.858;2022-11-20T05:06:51;12.90;;;8.07;;
47155;SDS011;32908;52.344;16.858;2022-11-20T05:09:20;15.77;;;8.87;;
47155;SDS011;32908;52.344;16.858;2022-11-20T05:11:47;13.03;;;8.87;;
47155;SDS011;32908;52.344;16.858;2022-11-20T05:14:16;12.57;;;8.37;;
47155;SDS011;32908;52.344;16.858;2022-11-20T05:16:44;14.47;;;8.57;;
47155;SDS011;32908;52.344;16.858;2022-11-20T05:19:11;12.80;;;8.43;;
47155;SDS011;32908;52.344;16.858;2022-11-20T05:21:39;14.10;;;9.20;;
47155;SDS011;32908;52.344;16.858;2022-11-20T05:24:07;11.67;;;8.43;;
47155;SDS011;32908;52.344;16.858;2022-11-20T05:26:35;12.57;;;8.67;;
47155;SDS011;32908;52.344;16.858;2022-11-20T05:29:03;14.53;;;8.70;;
47155;SDS011;32908;52.344;16.858;2022-11-20T05:31:31;14.17;;;8.33;;
47155;SDS011;32908;52.344;16.858;2022-11-20T05:33:59;14.60;;;9.00;;
47155;SDS011;32908;52.344;16.858;2022-11-20T05:36:27;15.17;;;8.83;;
47155;SDS011;32908;52.344;16.858;2022-11-20T05:38:55;14.23;;;9.33;;
47155;SDS011;32908;52.344;16.858;2022-11-20T05:41:23;14.10;;;9.10;;
47155;SDS011;32908;52.344;16.858;2022-11-20T05:43:51;15.57;;;9.83;;
47155;SDS011;32908;52.344;16.858;2022-11-20T05:46:19;17.30;;;9.90;;
47155;SDS011;32908;52.344;16.858;2022-11-20T05:48:48;17.33;;;9.90;;
47155;SDS011;32908;52.344;16.858;2022-11-20T05:51:16;17.10;;;10.00;;
47155;SDS011;32908;52.344;16.858;2022-11-20T05:53:45;18.45;;;10.90;;
47155;SDS011;32908;52.344;16.858;2022-11-20T05:56:14;15.60;;;9.77;;
47155;SDS011;32908;52.344;16.858;2022-11-20T05:58:43;16.37;;;9.97;;
47155;SDS011;32908;52.344;16.858;2022-11-20T06:01:13;17.40;;;10.23;;
47155;SDS011;32908;52.344;16.858;2022-11-20T06:03:42;18.10;;;10.57;;
47155;SDS011;32908;52.344;16.858;2022-11-20T06:06:12;17.27;;;9.97;;
47155;SDS011;32908;52.344;16.858;2022-11-20T06:08:41;16.93;;;10.20;;
47155;SDS011;32908;52.344;16.858;2022-11-20T06:11:09;19.50;;;10.37;;
47155;SDS011;32908;52.344;16.858;2022-11-20T06:13:39;21.30;;;12.43;;
47155;SDS011;32908;52.344;16.858;2022-11-20T06:16:07;18.93;;;12.07;;
47155;SDS011;32908;52.344;16.858;2022-11-20T06:18:35;19.90;;;11.30;;
47155;SDS011;32908;52.344;16.858;2022-11-20T06:21:04;17.60;;;11.40;;
47155;SDS011;32908;52.344;16.858;2022-11-20T06:23:33;20.55;;;11.90;;
47155;SDS011;32908;52.344;16.858;2022-11-20T06:26:02;21.50;;;12.07;;
47155;SDS011;32908;52.344;16.858;2022-11-20T06:28:30;18.90;;;11.20;;
47155;SDS011;32908;52.344;16.858;2022-11-20T06:30:59;19.45;;;10.90;;
47155;SDS011;32908;52.344;16.858;2022-11-20T06:33:27;20.13;;;11.57;;
47155;SDS011;32908;52.344;16.858;2022-11-20T06:35:56;20.30;;;12.40;;
47155;SDS011;32908;52.344;16.858;2022-11-20T06:38:25;19.27;;;11.90;;
47155;SDS011;32908;52.344;16.858;2022-11-20T06:40:53;23.40;;;13.50;;
47155;SDS011;32908;52.344;16.858;2022-11-20T06:43:21;23.67;;;12.40;;
47155;SDS011;32908;52.344;16.858;2022-11-20T06:45:52;23.20;;;13.13;;
47155;SDS011;32908;52.344;16.858;2022-11-20T06:48:20;20.87;;;12.07;;
47155;SDS011;32908;52.344;16.858;2022-11-20T06:50:48;20.67;;;12.07;;
47155;SDS011;32908;52.344;16.858;2022-11-20T06:53:16;21.47;;;13.00;;
47155;SDS011;32908;52.344;16.858;2022-11-20T06:55:44;23.20;;;12.47;;
47155;SDS011;32908;52.344;16.858;2022-11-20T06:58:13;22.17;;;13.07;;
47155;SDS011;32908;52.344;16.858;2022-11-20T07:00:41;24.37;;;13.40;;
47155;SDS011;32908;52.344;16.858;2022-11-20T07:03:10;23.70;;;13.93;;
47155;SDS011;32908;52.344;16.858;2022-11-20T07:05:39;21.23;;;13.20;;
47155;SDS011;32908;52.344;16.858;2022-11-20T07:08:07;23.83;;;13.37;;
47155;SDS011;32908;52.344;16.858;2022-11-20T07:10:36;22.83;;;13.23;;
47155;SDS011;32908;52.344;16.858;2022-11-20T07:13:04;21.53;;;12.70;;
47155;SDS011;32908;52.344;16.858;2022-11-20T07:15:33;24.70;;;14.50;;
47155;SDS011;32908;52.344;16.858;2022-11-20T07:18:01;23.20;;;12.63;;
47155;SDS011;32908;52.344;16.858;2022-11-20T07:20:29;24.93;;;14.07;;
47155;SDS011;32908;52.344;16.858;2022-11-20T07:22:57;26.40;;;14.43;;
47155;SDS011;32908;52.344;16.858;2022-11-20T07:25:26;23.37;;;14.07;;
47155;SDS011;32908;52.344;16.858;2022-11-20T07:27:57;23.30;;;13.80;;
47155;SDS011;32908;52.344;16.858;2022-11-20T07:30:25;27.60;;;14.40;;
47155;SDS011;32908;52.344;16.858;2022-11-20T07:32:53;26.03;;;14.33;;
47155;SDS011;32908;52.344;16.858;2022-11-20T07:35:22;28.65;;;15.60;;
47155;SDS011;32908;52.344;16.858;2022-11-20T07:37:50;24.00;;;13.77;;
47155;SDS011;32908;52.344;16.858;2022-11-20T07:40:18;27.60;;;15.73;;
47155;SDS011;32908;52.344;16.858;2022-11-20T07:42:49;24.27;;;13.90;;
47155;SDS011;32908;52.344;16.858;2022-11-20T07:45:18;26.30;;;15.17;;
47155;SDS011;32908;52.344;16.858;2022-11-20T07:47:46;27.47;;;14.53;;
47155;SDS011;32908;52.344;16.858;2022-11-20T07:50:14;26.60;;;14.63;;
47155;SDS011;32908;52.344;16.858;2022-11-20T07:52:43;26.47;;;14.60;;
47155;SDS011;32908;52.344;16.858;2022-11-20T07:55:10;25.27;;;14.97;;
47155;SDS011;32908;52.344;16.858;2022-11-20T07:57:39;25.27;;;14.70;;
47155;SDS011;32908;52.344;16.858;2022-11-20T08:00:08;26.17;;;14.47;;
47155;SDS011;32908;52.344;16.858;2022-11-20T08:02:38;27.73;;;14.83;;
47155;SDS011;32908;52.344;16.858;2022-11-20T08:05:07;22.60;;;14.50;;
47155;SDS011;32908;52.344;16.858;2022-11-20T08:07:36;29.00;;;14.85;;
47155;SDS011;32908;52.344;16.858;2022-11-20T08:10:05;24.00;;;13.60;;
47155;SDS011;32908;52.344;16.858;2022-11-20T08:12:35;24.75;;;14.40;;
47155;SDS011;32908;52.344;16.858;2022-11-20T08:15:21;27.37;;;14.83;;
47155;SDS011;32908;52.344;16.858;2022-11-20T08:17:49;28.03;;;15.97;;
47155;SDS011;32908;52.344;16.858;2022-11-20T08:20:16;26.73;;;14.93;;
47155;SDS011;32908;52.344;16.858;2022-11-20T08:22:44;27.10;;;15.60;;
47155;SDS011;32908;52.344;16.858;2022-11-20T08:25:12;25.43;;;14.33;;
47155;SDS011;32908;52.344;16.858;2022-11-20T08:27:40;26.17;;;14.87;;
47155;SDS011;32908;52.344;16.858;2022-11-20T08:30:10;25.50;;;14.35;;
47155;SDS011;32908;52.344;16.858;2022-11-20T08:32:39;28.57;;;15.10;;
47155;SDS011;32908;52.344;16.858;2022-11-20T08:35:08;24.77;;;14.70;;
47155;SDS011;32908;52.344;16.858;2022-11-20T08:37:36;23.97;;;13.63;;
47155;SDS011;32908;52.344;16.858;2022-11-20T08:40:09;27.70;;;15.30;;
47155;SDS011;32908;52.344;16.858;2022-11-20T08:42:45;23.73;;;14.43;;
47155;SDS011;32908;52.344;16.858;2022-11-20T08:45:14;24.30;;;13.60;;
47155;SDS011;32908;52.344;16.858;2022-11-20T08:47:42;26.60;;;14.20;;
47155;SDS011;32908;52.344;16.858;2022-11-20T08:55:21;23.90;;;13.85;;
47155;SDS011;32908;52.344;16.858;2022-11-20T08:57:49;24.17;;;14.27;;
47155;SDS011;32908;52.344;16.858;2022-11-20T09:00:17;24.17;;;13.80;;
47155;SDS011;32908;52.344;16.858;2022-11-20T09:02:45;23.57;;;12.50;;
47155;SDS011;32908;52.344;16.858;2022-11-20T09:05:13;25.00;;;14.00;;
47155;SDS011;32908;52.344;16.858;2022-11-20T09:07:41;22.37;;;13.40;;
47155;SDS011;32908;52.344;16.858;2022-11-20T09:10:09;23.70;;;13.30;;
47155;SDS011;32908;52.344;16.858;2022-11-20T09:12:37;23.33;;;13.50;;
47155;SDS011;32908;52.344;16.858;2022-11-20T09:15:06;23.93;;;13.67;;
47155;SDS011;32908;52.344;16.858;2022-11-20T09:17:36;21.67;;;12.50;;
47155;SDS011;32908;52.344;16.858;2022-11-20T09:20:04;23.97;;;13.03;;
47155;SDS011;32908;52.344;16.858;2022-11-20T09:22:33;26.40;;;14.93;;
47155;SDS011;32908;52.344;16.858;2022-11-20T09:25:01;24.30;;;14.95;;
47155;SDS011;32908;52.344;16.858;2022-11-20T09:27:29;24.33;;;14.10;;
47155;SDS011;32908;52.344;16.858;2022-11-20T09:29:57;25.73;;;15.33;;
47155;SDS011;32908;52.344;16.858;2022-11-20T09:32:25;23.83;;;13.97;;
47155;SDS011;32908;52.344;16.858;2022-11-20T09:34:53;27.03;;;15.63;;
47155;SDS011;32908;52.344;16.858;2022-11-20T09:37:21;23.30;;;13.80;;
47155;SDS011;32908;52.344;16.858;2022-11-20T09:39:49;28.25;;;15.00;;
47155;SDS011;32908;52.344;16.858;2022-11-20T09:42:29;29.55;;;15.10;;
47155;SDS011;32908;52.344;16.858;2022-11-20T09:45:08;23.90;;;13.93;;
47155;SDS011;32908;52.344;16.858;2022-11-20T09:47:47;24.97;;;13.93;;
47155;SDS011;32908;52.344;16.858;2022-11-20T09:50:27;23.03;;;14.23;;
47155;SDS011;32908;52.344;16.858;2022-11-20T09:53:09;23.37;;;13.50;;
47155;SDS011;32908;52.344;16.858;2022-11-20T09:55:40;25.80;;;14.23;;
47155;SDS011;32908;52.344;16.858;2022-11-20T09:58:13;24.70;;;14.47;;
47155;SDS011;32908;52.344;16.858;2022-11-20T10:00:45;28.60;;;15.83;;
47155;SDS011;32908;52.344;16.858;2022-11-20T10:03:14;31.13;;;16.27;;
47155;SDS011;32908;52.344;16.858;2022-11-20T10:05:45;29.80;;;15.93;;
47155;SDS011;32908;52.344;16.858;2022-11-20T10:08:16;31.30;;;16.57;;
47155;SDS011;32908;52.344;16.858;2022-11-20T10:10:47;30.63;;;16.83;;
47155;SDS011;32908;52.344;16.858;2022-11-20T10:13:32;28.63;;;16.00;;
47155;SDS011;32908;52.344;16.858;2022-11-20T10:16:11;25.80;;;14.57;;
47155;SDS011;32908;52.344;16.858;2022-11-20T10:18:51;24.73;;;13.87;;
47155;SDS011;32908;52.344;16.858;2022-11-20T10:21:26;24.20;;;14.97;;
47155;SDS011;32908;52.344;16.858;2022-11-20T10:24:23;28.87;;;15.47;;
47155;SDS011;32908;52.344;16.858;2022-11-20T10:26:58;25.47;;;14.67;;
47155;SDS011;32908;52.344;16.858;2022-11-20T10:29:33;27.45;;;15.05;;
47155;SDS011;32908;52.344;16.858;2022-11-20T10:32:04;26.75;;;15.60;;
47155;SDS011;32908;52.344;16.858;2022-11-20T10:34:38;29.77;;;15.30;;
47155;SDS011;32908;52.344;16.858;2022-11-20T10:37:14;28.33;;;15.50;;
47155;SDS011;32908;52.344;16.858;2022-11-20T10:39:47;26.03;;;14.67;;
47155;SDS011;32908;52.344;16.858;2022-11-20T10:42:26;25.80;;;15.27;;
47155;SDS011;32908;52.344;16.858;2022-11-20T10:45:02;26.10;;;14.23;;
47155;SDS011;32908;52.344;16.858;2022-11-20T10:47:39;25.27;;;13.40;;
47155;SDS011;32908;52.344;16.858;2022-11-20T10:50:09;20.20;;;11.13;;
47155;SDS011;32908;52.344;16.858;2022-11-20T10:52:41;16.80;;;10.30;;
47155;SDS011;32908;52.344;16.858;2022-11-20T23:34:17;54.53;;;26.00;;
47155;SDS011;32908;52.344;16.858;2022-11-20T23:36:45;52.17;;;25.43;;
47155;SDS011;32908;52.344;16.858;2022-11-20T23:39:13;46.47;;;23.40;;
47155;SDS011;32908;52.344;16.858;2022-11-20T23:41:42;49.30;;;24.03;;
47155;SDS011;32908;52.344;16.858;2022-11-20T23:44:10;44.97;;;23.07;;
47155;SDS011;32908;52.344;16.858;2022-11-20T23:46:38;53.23;;;24.80;;
47155;SDS011;32908;52.344;16.858;2022-11-20T23:49:06;52.70;;;24.60;;
47155;SDS011;32908;52.344;16.858;2022-11-20T23:51:34;57.10;;;25.33;;
47155;SDS011;32908;52.344;16.858;2022-11-20T23:54:01;56.40;;;24.83;;
47155;SDS011;32908;52.344;16.858;2022-11-20T23:56:29;56.60;;;25.17;;
47155;SDS011;32908;52.344;16.858;2022-11-20T23:58:57;55.07;;;25.83;;
